createdAt,value
2018-06-21T00:01:44.007Z,17.90
2018-06-21T00:04:12.147Z,18.00
2018-06-21T00:06:40.279Z,18.00
2018-06-21T00:09:09.234Z,18.00
2018-06-21T00:11:37.713Z,18.00
2018-06-21T00:14:05.849Z,18.00
2018-06-21T00:16:34.039Z,18.10
2018-06-21T00:19:02.279Z,18.10
2018-06-21T00:21:30.443Z,18.00
2018-06-21T00:23:58.587Z,17.80
2018-06-21T00:26:26.730Z,17.60
2018-06-21T00:28:54.882Z,17.40
2018-06-21T00:31:23.026Z,17.30
2018-06-21T00:33:51.160Z,17.30
2018-06-21T00:36:19.298Z,17.30
2018-06-21T00:38:47.442Z,17.40
2018-06-21T00:41:15.593Z,17.50
2018-06-21T00:43:43.770Z,17.50
2018-06-21T00:46:11.910Z,17.40
2018-06-21T00:48:40.070Z,17.30
2018-06-21T00:51:08.207Z,17.30
2018-06-21T00:53:36.358Z,17.40
2018-06-21T00:56:16.327Z,17.50
2018-06-21T00:58:45.221Z,17.60
2018-06-21T01:01:13.916Z,17.70
2018-06-21T01:03:42.078Z,17.70
2018-06-21T01:06:10.208Z,17.60
2018-06-21T01:08:38.348Z,17.50
2018-06-21T01:11:06.551Z,17.50
2018-06-21T01:13:34.695Z,17.40
2018-06-21T01:16:02.818Z,17.40
2018-06-21T01:18:30.959Z,17.40
2018-06-21T01:20:59.103Z,17.40
2018-06-21T01:23:27.248Z,17.40
2018-06-21T01:25:55.395Z,17.50
2018-06-21T01:28:23.533Z,17.60
2018-06-21T01:30:51.659Z,17.60
2018-06-21T01:33:19.790Z,17.70
2018-06-21T01:35:47.911Z,17.70
2018-06-21T01:38:16.043Z,17.70
2018-06-21T01:40:44.172Z,17.60
2018-06-21T01:43:12.302Z,17.60
2018-06-21T01:45:40.418Z,17.60
2018-06-21T01:48:08.542Z,17.60
2018-06-21T01:50:36.719Z,17.70
2018-06-21T01:53:04.894Z,17.70
2018-06-21T01:55:33.002Z,17.60
2018-06-21T01:58:01.135Z,17.50
2018-06-21T02:00:29.290Z,17.50
2018-06-21T02:02:57.549Z,17.50
2018-06-21T02:07:53.620Z,17.40
2018-06-21T02:10:21.750Z,17.30
2018-06-21T02:12:49.922Z,17.20
2018-06-21T02:15:18.057Z,17.10
2018-06-21T02:17:46.198Z,17.10
2018-06-21T02:20:14.391Z,17.10
2018-06-21T02:22:42.517Z,17.00
2018-06-21T02:25:10.638Z,16.90
2018-06-21T02:27:38.773Z,17.00
2018-06-21T02:30:06.929Z,17.00
2018-06-21T02:32:35.088Z,17.10
2018-06-21T02:35:03.233Z,17.00
2018-06-21T02:37:31.376Z,16.90
2018-06-21T02:39:59.512Z,16.80
2018-06-21T02:42:27.662Z,16.70
2018-06-21T02:44:55.798Z,16.70
2018-06-21T02:47:24.036Z,16.80
2018-06-21T02:49:52.171Z,16.80
2018-06-21T02:52:20.303Z,16.90
2018-06-21T02:54:48.455Z,16.90
2018-06-21T02:57:16.580Z,16.90
2018-06-21T02:59:44.735Z,16.90
2018-06-21T03:02:12.872Z,16.90
2018-06-21T03:04:41.015Z,17.00
2018-06-21T03:07:09.190Z,16.90
2018-06-21T03:09:37.374Z,16.90
2018-06-21T03:12:09.730Z,16.90
2018-06-21T03:14:37.868Z,16.90
2018-06-21T03:17:06.018Z,17.00
2018-06-21T03:19:34.173Z,17.00
2018-06-21T03:22:02.323Z,17.00
2018-06-21T03:24:30.447Z,17.10
2018-06-21T03:26:58.593Z,17.10
2018-06-21T03:29:26.740Z,17.10
2018-06-21T03:31:54.867Z,17.00
2018-06-21T03:34:22.998Z,16.70
2018-06-21T03:36:51.154Z,16.50
2018-06-21T03:39:19.287Z,16.50
2018-06-21T03:41:47.422Z,16.50
2018-06-21T03:44:15.581Z,16.50
2018-06-21T03:46:43.731Z,16.60
2018-06-21T03:49:11.870Z,16.80
2018-06-21T03:51:40.027Z,16.90
2018-06-21T03:54:08.151Z,17.00
2018-06-21T03:56:36.287Z,17.10
2018-06-21T03:59:04.447Z,17.20
2018-06-21T04:01:32.590Z,17.20
2018-06-21T04:04:00.714Z,17.30
2018-06-21T04:06:28.868Z,17.40
2018-06-21T04:08:57.255Z,17.80
2018-06-21T04:11:25.485Z,18.40
2018-06-21T04:13:53.628Z,19.40
2018-06-21T04:16:21.814Z,20.40
2018-06-21T04:18:49.950Z,21.20
2018-06-21T04:21:18.121Z,21.70
2018-06-21T04:23:46.260Z,22.30
2018-06-21T04:26:14.418Z,22.80
2018-06-21T04:28:42.542Z,23.30
2018-06-21T04:31:10.699Z,23.60
2018-06-21T04:36:14.456Z,24.20
2018-06-21T04:38:42.622Z,24.20
2018-06-21T04:41:10.751Z,24.10
2018-06-21T04:43:38.962Z,23.70
2018-06-21T04:46:07.146Z,22.90
2018-06-21T04:48:35.267Z,22.20
2018-06-21T04:51:03.392Z,21.80
2018-06-21T04:53:31.502Z,21.40
2018-06-21T04:55:59.633Z,21.20
2018-06-21T04:58:27.758Z,20.90
2018-06-21T05:00:55.880Z,20.70
2018-06-21T05:03:24.006Z,20.60
2018-06-21T05:05:52.122Z,20.50
2018-06-21T05:08:20.247Z,20.30
2018-06-21T05:10:48.358Z,20.20
2018-06-21T05:13:16.532Z,20.10
2018-06-21T05:15:44.760Z,20.10
2018-06-21T05:18:12.903Z,19.90
2018-06-21T05:20:41.003Z,19.90
2018-06-21T05:23:09.126Z,20.40
2018-06-21T05:25:37.246Z,21.10
2018-06-21T05:28:05.358Z,21.60
2018-06-21T05:30:33.478Z,21.70
2018-06-21T05:35:29.595Z,21.60
2018-06-21T05:37:57.970Z,21.50
2018-06-21T05:40:32.285Z,21.40
2018-06-21T05:43:01.196Z,21.30
2018-06-21T05:45:29.380Z,21.20
2018-06-21T05:47:59.163Z,21.20
2018-06-21T05:50:27.539Z,21.20
2018-06-21T05:52:56.633Z,21.20
2018-06-21T05:55:24.775Z,21.20
2018-06-21T05:57:52.919Z,21.20
2018-06-21T06:00:21.066Z,21.30
2018-06-21T06:02:49.452Z,21.40
2018-06-21T06:05:17.582Z,21.40
2018-06-21T06:07:45.705Z,21.50
2018-06-21T06:10:13.822Z,21.50
2018-06-21T06:12:41.949Z,21.50
2018-06-21T06:15:10.057Z,21.60
2018-06-21T06:17:38.166Z,21.60
2018-06-21T06:20:06.303Z,21.60
2018-06-21T06:22:34.391Z,21.70
2018-06-21T06:25:02.520Z,21.80
2018-06-21T06:29:58.518Z,21.90
2018-06-21T06:32:26.659Z,22.10
2018-06-21T06:34:54.858Z,22.10
2018-06-21T06:37:23.046Z,22.20
2018-06-21T06:39:51.158Z,22.40
2018-06-21T06:42:19.308Z,22.50
2018-06-21T06:44:47.459Z,22.50
2018-06-21T06:47:15.767Z,22.60
2018-06-21T06:49:43.877Z,22.60
2018-06-21T06:52:11.998Z,22.60
2018-06-21T06:54:40.158Z,22.60
2018-06-21T06:57:08.250Z,22.70
2018-06-21T06:59:36.366Z,22.70
2018-06-21T07:02:04.495Z,22.80
2018-06-21T07:04:32.611Z,22.90
2018-06-21T07:07:00.756Z,22.90
2018-06-21T07:09:28.904Z,22.90
2018-06-21T07:11:57.086Z,22.90
2018-06-21T07:14:25.230Z,22.90
2018-06-21T07:16:53.330Z,22.80
2018-06-21T07:19:21.470Z,22.90
2018-06-21T07:21:49.574Z,22.80
2018-06-21T07:24:17.714Z,22.90
2018-06-21T07:26:45.818Z,23.00
2018-06-21T07:29:13.940Z,23.10
2018-06-21T07:31:42.071Z,23.00
2018-06-21T07:34:10.196Z,23.20
2018-06-21T07:36:38.336Z,23.30
2018-06-21T07:41:35.871Z,23.40
2018-06-21T07:44:04.012Z,23.40
2018-06-21T07:46:32.475Z,23.50
2018-06-21T07:49:00.660Z,23.50
2018-06-21T07:51:28.788Z,23.60
2018-06-21T07:53:56.939Z,23.60
2018-06-21T07:56:25.058Z,23.70
2018-06-21T07:58:53.183Z,23.70
2018-06-21T08:01:21.420Z,23.80
2018-06-21T08:03:49.538Z,23.80
2018-06-21T08:06:17.690Z,23.80
2018-06-21T08:08:45.828Z,23.70
2018-06-21T08:11:13.942Z,23.70
2018-06-21T08:13:42.062Z,23.70
2018-06-21T08:16:10.211Z,23.70
2018-06-21T08:18:38.343Z,23.70
2018-06-21T08:21:06.692Z,23.90
2018-06-21T08:23:34.824Z,23.90
2018-06-21T08:26:02.943Z,24.00
2018-06-21T08:28:31.075Z,24.00
2018-06-21T08:30:59.182Z,24.20
2018-06-21T08:33:27.287Z,24.30
2018-06-21T08:35:55.399Z,24.40
2018-06-21T08:38:23.522Z,24.50
2018-06-21T08:40:51.626Z,24.60
2018-06-21T08:43:19.751Z,24.80
2018-06-21T08:45:47.923Z,24.90
2018-06-21T08:48:16.017Z,25.00
2018-06-21T08:50:44.126Z,24.90
2018-06-21T08:53:12.247Z,25.00
2018-06-21T08:55:40.383Z,24.90
2018-06-21T08:58:08.537Z,25.00
2018-06-21T09:00:36.650Z,24.90
2018-06-21T09:03:04.794Z,24.50
2018-06-21T09:05:32.927Z,24.00
2018-06-21T09:08:01.039Z,23.80
2018-06-21T09:10:29.154Z,23.60
2018-06-21T09:12:57.276Z,23.70
2018-06-21T09:15:25.460Z,23.70
2018-06-21T09:17:53.506Z,24.00
2018-06-21T09:20:21.630Z,24.10
2018-06-21T09:22:49.740Z,24.30
2018-06-21T09:25:17.887Z,24.40
2018-06-21T09:27:46.007Z,24.50
2018-06-21T09:30:14.134Z,24.80
2018-06-21T09:32:42.254Z,24.90
2018-06-21T09:35:10.378Z,24.90
2018-06-21T09:37:43.938Z,24.10
2018-06-21T09:40:17.424Z,24.00
2018-06-21T09:42:50.898Z,24.20
2018-06-21T09:45:24.589Z,24.30
2018-06-21T09:47:58.279Z,24.20
2018-06-21T09:50:26.419Z,24.30
2018-06-21T09:52:54.536Z,24.50
2018-06-21T09:55:22.661Z,24.50
2018-06-21T09:57:50.790Z,24.30
2018-06-21T10:00:24.485Z,24.20
2018-06-21T10:02:52.611Z,24.00
2018-06-21T10:05:20.722Z,23.90
2018-06-21T10:07:48.844Z,23.80
2018-06-21T10:10:16.962Z,23.80
2018-06-21T10:12:45.812Z,23.90
2018-06-21T10:15:15.119Z,23.90
2018-06-21T10:17:43.259Z,24.00
2018-06-21T10:20:11.386Z,24.10
2018-06-21T10:22:39.526Z,24.30
2018-06-21T10:25:07.670Z,24.50
2018-06-21T10:27:35.773Z,24.80
2018-06-21T10:30:03.932Z,24.50
2018-06-21T10:32:32.052Z,24.70
2018-06-21T10:35:00.203Z,24.90
2018-06-21T10:37:28.314Z,25.10
2018-06-21T10:39:56.445Z,25.40
2018-06-21T10:42:24.615Z,25.30
2018-06-21T10:44:52.818Z,24.80
2018-06-21T10:47:20.961Z,24.30
2018-06-21T10:49:49.082Z,24.50
2018-06-21T10:52:17.225Z,24.80
2018-06-21T10:54:45.351Z,24.90
2018-06-21T10:57:13.483Z,24.90
2018-06-21T10:59:41.616Z,25.00
2018-06-21T11:02:09.742Z,25.30
2018-06-21T11:04:37.873Z,25.50
2018-06-21T11:07:06.036Z,25.10
2018-06-21T11:09:34.171Z,24.70
2018-06-21T11:12:02.298Z,24.30
2018-06-21T11:14:30.421Z,24.30
2018-06-21T11:16:58.684Z,24.20
2018-06-21T11:19:26.730Z,24.20
2018-06-21T11:21:54.904Z,24.00
2018-06-21T11:24:22.978Z,24.20
2018-06-21T11:26:51.110Z,24.40
2018-06-21T11:29:19.236Z,24.60
2018-06-21T11:31:47.359Z,24.80
2018-06-21T11:34:15.522Z,24.80
2018-06-21T11:36:43.626Z,24.80
2018-06-21T11:39:11.751Z,24.90
2018-06-21T11:41:39.875Z,24.90
2018-06-21T11:44:08.062Z,25.10
2018-06-21T11:46:36.411Z,25.10
2018-06-21T11:49:04.870Z,24.60
2018-06-21T11:51:32.990Z,24.30
2018-06-21T11:54:01.106Z,24.30
2018-06-21T11:56:29.276Z,24.30
2018-06-21T11:58:57.448Z,24.30
2018-06-21T12:01:25.550Z,24.20
2018-06-21T12:03:53.642Z,24.10
2018-06-21T12:06:21.746Z,24.00
2018-06-21T12:08:49.912Z,24.00
2018-06-21T12:11:17.962Z,24.10
2018-06-21T12:13:46.119Z,24.30
2018-06-21T12:16:14.229Z,24.50
2018-06-21T12:18:42.342Z,24.20
2018-06-21T12:21:10.490Z,24.20
2018-06-21T12:23:38.598Z,24.20
2018-06-21T12:26:06.748Z,24.20
2018-06-21T12:28:34.828Z,24.10
2018-06-21T12:31:02.942Z,24.20
2018-06-21T12:33:31.061Z,24.30
2018-06-21T12:35:59.162Z,24.60
2018-06-21T12:38:27.342Z,24.80
2018-06-21T12:40:55.447Z,24.90
2018-06-21T12:43:23.551Z,25.10
2018-06-21T12:45:51.754Z,25.40
2018-06-21T12:48:19.857Z,25.60
2018-06-21T12:50:47.958Z,25.80
2018-06-21T12:53:16.055Z,26.00
2018-06-21T12:55:44.162Z,26.00
2018-06-21T12:58:12.271Z,25.90
2018-06-21T13:00:40.375Z,25.70
2018-06-21T13:03:08.487Z,25.40
2018-06-21T13:05:36.591Z,24.50
2018-06-21T13:08:04.707Z,24.20
2018-06-21T13:10:44.154Z,23.70
2018-06-21T13:13:18.634Z,23.60
2018-06-21T13:15:46.767Z,23.40
2018-06-21T13:18:14.883Z,23.30
2018-06-21T13:20:42.978Z,23.40
2018-06-21T13:23:11.085Z,23.50
2018-06-21T13:25:39.191Z,23.50
2018-06-21T13:28:07.303Z,23.40
2018-06-21T13:30:35.398Z,23.40
2018-06-21T13:33:03.494Z,23.50
2018-06-21T13:35:31.595Z,23.80
2018-06-21T13:37:59.736Z,24.10
2018-06-21T13:40:27.832Z,24.20
2018-06-21T13:42:56.151Z,24.30
2018-06-21T13:45:24.263Z,24.40
2018-06-21T13:47:52.376Z,24.30
2018-06-21T13:50:20.478Z,23.90
2018-06-21T13:52:48.614Z,23.90
2018-06-21T13:55:16.733Z,24.10
2018-06-21T13:57:44.831Z,24.20
2018-06-21T14:00:12.944Z,24.20
2018-06-21T14:02:41.065Z,24.50
2018-06-21T14:05:09.179Z,24.60
2018-06-21T14:07:37.368Z,24.80
2018-06-21T14:10:05.401Z,24.90
2018-06-21T14:12:33.497Z,24.60
2018-06-21T14:15:01.647Z,24.60
2018-06-21T14:17:29.754Z,24.30
2018-06-21T14:19:57.898Z,24.20
2018-06-21T14:22:26.011Z,24.00
2018-06-21T14:24:54.110Z,23.70
2018-06-21T14:27:22.215Z,23.70
2018-06-21T14:29:50.318Z,23.90
2018-06-21T14:32:18.428Z,23.80
2018-06-21T14:34:46.540Z,23.50
2018-06-21T14:37:14.639Z,23.50
2018-06-21T14:39:42.751Z,23.30
2018-06-21T14:42:10.867Z,23.10
2018-06-21T14:44:38.970Z,23.10
2018-06-21T14:47:07.096Z,23.10
2018-06-21T14:49:35.199Z,23.30
2018-06-21T14:52:03.304Z,23.50
2018-06-21T14:54:31.418Z,23.40
2018-06-21T14:56:59.569Z,23.40
2018-06-21T14:59:27.728Z,23.00
2018-06-21T15:01:56.162Z,22.50
2018-06-21T15:04:24.262Z,22.40
2018-06-21T15:06:52.353Z,22.70
2018-06-21T15:09:20.464Z,23.10
2018-06-21T15:11:48.571Z,23.40
2018-06-21T15:14:16.697Z,23.50
2018-06-21T15:16:44.781Z,23.50
2018-06-21T15:19:12.886Z,23.40
2018-06-21T15:21:41.042Z,23.30
2018-06-21T15:24:09.141Z,23.50
2018-06-21T15:26:37.238Z,23.50
2018-06-21T15:29:05.371Z,23.40
2018-06-21T15:31:33.450Z,23.00
2018-06-21T15:34:01.822Z,22.60
2018-06-21T15:36:29.935Z,22.30
2018-06-21T15:38:59.093Z,22.10
2018-06-21T15:41:28.705Z,22.10
2018-06-21T15:43:56.825Z,22.30
2018-06-21T15:46:24.930Z,22.80
2018-06-21T15:48:53.076Z,22.70
2018-06-21T15:51:21.186Z,22.60
2018-06-21T15:53:49.285Z,22.20
2018-06-21T15:56:17.430Z,21.90
2018-06-21T15:58:45.534Z,21.80
2018-06-21T16:01:13.651Z,22.00
2018-06-21T16:03:41.758Z,21.80
2018-06-21T16:06:09.883Z,21.90
2018-06-21T16:08:38.004Z,21.60
2018-06-21T16:11:06.098Z,21.60
2018-06-21T16:13:34.217Z,21.70
2018-06-21T16:16:02.314Z,21.80
2018-06-21T16:18:30.426Z,21.90
2018-06-21T16:20:58.527Z,22.00
2018-06-21T16:23:26.643Z,21.80
2018-06-21T16:25:54.760Z,21.80
2018-06-21T16:28:22.894Z,21.60
2018-06-21T16:30:50.995Z,21.20
2018-06-21T16:33:19.111Z,21.00
2018-06-21T16:35:47.270Z,21.00
2018-06-21T16:38:15.386Z,21.00
2018-06-21T16:40:43.501Z,21.00
2018-06-21T16:43:11.610Z,21.20
2018-06-21T16:45:39.730Z,21.40
2018-06-21T16:48:07.894Z,21.20
2018-06-21T16:50:35.970Z,21.10
2018-06-21T16:53:04.086Z,21.10
2018-06-21T16:55:32.215Z,21.00
2018-06-21T16:58:00.345Z,20.90
2018-06-21T17:00:28.446Z,20.70
2018-06-21T17:02:56.569Z,20.60
2018-06-21T17:05:25.358Z,20.50
2018-06-21T17:07:53.470Z,20.40
2018-06-21T17:10:21.589Z,20.30
2018-06-21T17:12:49.697Z,20.30
2018-06-21T17:15:17.815Z,20.30
2018-06-21T17:17:46.036Z,20.20
2018-06-21T17:20:14.146Z,20.20
2018-06-21T17:22:42.262Z,20.20
2018-06-21T17:25:10.450Z,20.20
2018-06-21T17:27:38.564Z,20.30
2018-06-21T17:30:06.669Z,20.20
2018-06-21T17:32:34.767Z,20.20
2018-06-21T17:35:02.897Z,20.20
2018-06-21T17:37:31.005Z,20.10
2018-06-21T17:39:59.126Z,20.00
2018-06-21T17:42:27.237Z,20.00
2018-06-21T17:44:55.353Z,20.10
2018-06-21T17:47:23.475Z,20.10
2018-06-21T17:49:51.580Z,20.00
2018-06-21T17:52:19.690Z,20.10
2018-06-21T17:57:15.710Z,19.80
2018-06-21T17:59:43.853Z,19.60
2018-06-21T18:02:11.982Z,19.40
2018-06-21T18:04:40.088Z,19.20
2018-06-21T18:07:08.213Z,19.10
2018-06-21T18:09:36.327Z,19.10
2018-06-21T18:12:04.442Z,19.00
2018-06-21T18:14:32.564Z,18.90
2018-06-21T18:17:00.674Z,18.80
2018-06-21T18:19:28.896Z,18.90
2018-06-21T18:21:56.967Z,18.90
2018-06-21T18:24:25.083Z,19.00
2018-06-21T18:26:53.483Z,19.10
2018-06-21T18:29:21.614Z,19.10
2018-06-21T18:31:49.744Z,19.00
2018-06-21T18:34:17.862Z,18.80
2018-06-21T18:36:46.027Z,18.60
2018-06-21T18:39:14.144Z,18.20
2018-06-21T18:41:42.735Z,18.20
2018-06-21T18:44:10.994Z,18.20
2018-06-21T18:46:39.098Z,17.90
2018-06-21T18:49:07.225Z,17.60
2018-06-21T18:51:35.425Z,17.60
2018-06-21T18:54:03.579Z,17.50
2018-06-21T18:56:31.718Z,17.50
2018-06-21T18:58:59.863Z,17.40
2018-06-21T19:01:27.978Z,17.20
2018-06-21T19:03:56.290Z,17.20
2018-06-21T19:06:29.918Z,16.90
2018-06-21T19:11:36.959Z,16.80
2018-06-21T19:14:05.163Z,16.80
2018-06-21T19:16:33.318Z,16.80
2018-06-21T19:19:01.434Z,16.90
2018-06-21T19:21:29.536Z,16.80
2018-06-21T19:23:57.631Z,16.80
2018-06-21T19:26:26.083Z,16.80
2018-06-21T19:28:54.182Z,16.80
2018-06-21T19:31:22.295Z,16.80
2018-06-21T19:33:50.426Z,16.80
2018-06-21T19:36:18.546Z,16.70
2018-06-21T19:38:46.673Z,16.50
2018-06-21T19:41:14.774Z,16.40
2018-06-21T19:43:42.899Z,16.50
2018-06-21T19:46:11.082Z,16.50
2018-06-21T19:48:39.395Z,16.50
2018-06-21T19:51:07.568Z,16.40
2018-06-21T19:53:35.703Z,16.40
2018-06-21T19:56:03.817Z,16.20
2018-06-21T19:58:31.922Z,16.10
2018-06-21T20:01:00.052Z,16.00
2018-06-21T20:03:28.147Z,16.00
2018-06-21T20:05:56.246Z,15.90
2018-06-21T20:08:24.357Z,15.90
2018-06-21T20:10:57.891Z,15.80
2018-06-21T20:13:26.007Z,15.70
2018-06-21T20:15:54.825Z,15.80
2018-06-21T20:18:23.260Z,15.70
2018-06-21T20:20:51.345Z,15.70
2018-06-21T20:23:20.478Z,15.70
2018-06-21T20:25:48.614Z,15.70
2018-06-21T20:28:16.856Z,15.60
2018-06-21T20:30:44.962Z,15.60
2018-06-21T20:33:13.064Z,15.60
2018-06-21T20:35:41.190Z,15.50
2018-06-21T20:38:09.350Z,15.50
2018-06-21T20:40:37.418Z,15.50
2018-06-21T20:43:05.524Z,15.30
2018-06-21T20:45:33.654Z,15.20
2018-06-21T20:48:01.762Z,15.20
2018-06-21T20:50:29.954Z,15.10
2018-06-21T20:52:57.994Z,15.00
2018-06-21T20:55:26.116Z,14.90
2018-06-21T20:57:54.222Z,14.70
2018-06-21T21:00:22.344Z,14.70
2018-06-21T21:02:50.463Z,14.70
2018-06-21T21:05:18.910Z,14.60
2018-06-21T21:07:48.327Z,14.60
2018-06-21T21:10:17.486Z,14.50
2018-06-21T21:12:45.599Z,14.40
2018-06-21T21:15:14.373Z,14.30
2018-06-21T21:17:42.775Z,14.20
2018-06-21T21:20:11.000Z,14.20
2018-06-21T21:22:39.922Z,14.10
2018-06-21T21:25:08.076Z,14.00
2018-06-21T21:27:36.199Z,14.00
2018-06-21T21:30:05.929Z,13.90
2018-06-21T21:32:34.062Z,13.80
2018-06-21T21:35:02.178Z,13.70
2018-06-21T21:37:30.287Z,13.60
2018-06-21T21:40:00.419Z,13.40
2018-06-21T21:42:29.306Z,13.20
2018-06-21T21:44:57.469Z,13.20
2018-06-21T21:47:26.174Z,13.20
2018-06-21T21:49:54.753Z,13.20
2018-06-21T21:52:22.930Z,13.10
2018-06-21T21:54:51.304Z,13.10
2018-06-21T21:57:19.678Z,13.10
2018-06-21T21:59:48.362Z,13.10
2018-06-21T22:02:17.061Z,13.00
2018-06-21T22:04:45.634Z,13.00
2018-06-21T22:07:13.767Z,12.90
2018-06-21T22:09:42.096Z,12.80
2018-06-21T22:12:10.242Z,12.80
2018-06-21T22:14:38.382Z,12.70
2018-06-21T22:17:06.514Z,12.50
2018-06-21T22:19:34.645Z,12.60
2018-06-21T22:22:02.742Z,12.60
2018-06-21T22:24:30.847Z,12.50
2018-06-21T22:26:58.946Z,12.40
2018-06-21T22:29:27.065Z,12.30
2018-06-21T22:31:55.257Z,12.30
2018-06-21T22:34:23.367Z,12.30
2018-06-21T22:36:51.482Z,12.20
2018-06-21T22:39:19.582Z,12.20
2018-06-21T22:41:47.682Z,12.20
2018-06-21T22:44:15.795Z,12.10
2018-06-21T22:46:43.900Z,11.90
2018-06-21T22:49:12.012Z,11.60
2018-06-21T22:51:40.102Z,11.60
2018-06-21T22:54:08.606Z,11.50
2018-06-21T22:56:36.709Z,11.60
2018-06-21T22:59:04.817Z,11.60
2018-06-21T23:01:32.913Z,11.50
2018-06-21T23:04:01.040Z,11.50
2018-06-21T23:06:29.135Z,11.40
2018-06-21T23:08:57.238Z,11.50
2018-06-21T23:11:25.343Z,11.40
2018-06-21T23:16:21.326Z,11.20
2018-06-21T23:19:00.878Z,11.20
2018-06-21T23:21:29.007Z,11.20
2018-06-21T23:23:57.125Z,11.10
2018-06-21T23:26:25.229Z,11.10
2018-06-21T23:28:53.359Z,10.90
2018-06-21T23:31:21.458Z,10.80
2018-06-21T23:33:49.563Z,10.80
2018-06-21T23:36:17.680Z,10.60
2018-06-21T23:38:45.777Z,10.60
2018-06-21T23:41:13.877Z,10.60
2018-06-21T23:43:41.983Z,10.60
2018-06-21T23:46:10.095Z,10.50
2018-06-21T23:48:38.189Z,10.50
2018-06-21T23:51:06.306Z,10.40
2018-06-21T23:53:34.431Z,10.30
2018-06-21T23:56:02.518Z,10.20
2018-06-21T23:58:30.628Z,10.20
